sensor_id;sensor_type;location;lat;lon;timestamp;pressure;altitude;pressure_sealevel;temperature;humidity
6829;BME280;17930;48.592;8.868;2023-07-16T00:00:39;96580.47;;;19.24;100.00
6829;BME280;17930;48.592;8.868;2023-07-16T00:03:05;96584.72;;;19.16;100.00
6829;BME280;17930;48.592;8.868;2023-07-16T00:05:32;96571.16;;;19.18;100.00
6829;BME280;17930;48.592;8.868;2023-07-16T00:07:59;96559.94;;;19.21;100.00
6829;BME280;17930;48.592;8.868;2023-07-16T00:10:25;96561.94;;;19.36;100.00
6829;BME280;17930;48.592;8.868;2023-07-16T00:12:53;96550.13;;;19.21;100.00
6829;BME280;17930;48.592;8.868;2023-07-16T00:15:20;96549.91;;;19.26;100.00
6829;BME280;17930;48.592;8.868;2023-07-16T00:17:47;96565.22;;;19.21;100.00
6829;BME280;17930;48.592;8.868;2023-07-16T00:20:13;96569.00;;;19.20;100.00
6829;BME280;17930;48.592;8.868;2023-07-16T00:22:40;96567.66;;;19.26;100.00
6829;BME280;17930;48.592;8.868;2023-07-16T00:25:07;96580.88;;;19.38;100.00
6829;BME280;17930;48.592;8.868;2023-07-16T00:27:34;96579.44;;;19.40;100.00
6829;BME280;17930;48.592;8.868;2023-07-16T00:30:03;96587.50;;;19.32;100.00
6829;BME280;17930;48.592;8.868;2023-07-16T00:32:29;96596.75;;;19.26;100.00
6829;BME280;17930;48.592;8.868;2023-07-16T00:34:56;96589.41;;;18.99;100.00
6829;BME280;17930;48.592;8.868;2023-07-16T00:37:23;96588.75;;;18.90;100.00
6829;BME280;17930;48.592;8.868;2023-07-16T00:39:50;96587.41;;;18.84;100.00
6829;BME280;17930;48.592;8.868;2023-07-16T00:42:16;96587.63;;;18.79;100.00
6829;BME280;17930;48.592;8.868;2023-07-16T00:44:43;96586.31;;;18.85;100.00
6829;BME280;17930;48.592;8.868;2023-07-16T00:47:12;96583.66;;;18.85;100.00
6829;BME280;17930;48.592;8.868;2023-07-16T00:49:39;96590.50;;;18.86;100.00
6829;BME280;17930;48.592;8.868;2023-07-16T00:52:09;96595.44;;;18.76;100.00
6829;BME280;17930;48.592;8.868;2023-07-16T00:54:38;96594.78;;;18.79;100.00
6829;BME280;17930;48.592;8.868;2023-07-16T00:57:04;96601.69;;;18.71;100.00
6829;BME280;17930;48.592;8.868;2023-07-16T00:59:31;96619.75;;;18.69;100.00
6829;BME280;17930;48.592;8.868;2023-07-16T01:01:58;96632.72;;;18.62;100.00
6829;BME280;17930;48.592;8.868;2023-07-16T01:04:26;96636.59;;;18.45;100.00
6829;BME280;17930;48.592;8.868;2023-07-16T01:06:55;96632.16;;;18.37;100.00
6829;BME280;17930;48.592;8.868;2023-07-16T01:09:24;96625.97;;;18.33;100.00
6829;BME280;17930;48.592;8.868;2023-07-16T01:11:51;96632.88;;;18.25;100.00
6829;BME280;17930;48.592;8.868;2023-07-16T01:14:20;96634.94;;;18.20;100.00
6829;BME280;17930;48.592;8.868;2023-07-16T01:16:47;96654.09;;;18.08;100.00
6829;BME280;17930;48.592;8.868;2023-07-16T01:19:14;96649.19;;;17.98;100.00
6829;BME280;17930;48.592;8.868;2023-07-16T01:22:03;96643.91;;;17.98;100.00
6829;BME280;17930;48.592;8.868;2023-07-16T01:24:49;96655.75;;;17.93;100.00
6829;BME280;17930;48.592;8.868;2023-07-16T01:27:38;96649.41;;;17.85;100.00
6829;BME280;17930;48.592;8.868;2023-07-16T01:30:15;96661.72;;;17.81;100.00
6829;BME280;17930;48.592;8.868;2023-07-16T01:32:43;96655.22;;;17.79;100.00
6829;BME280;17930;48.592;8.868;2023-07-16T01:35:11;96669.69;;;17.73;100.00
6829;BME280;17930;48.592;8.868;2023-07-16T01:37:39;96655.69;;;17.72;100.00
6829;BME280;17930;48.592;8.868;2023-07-16T01:40:07;96635.44;;;17.85;100.00
6829;BME280;17930;48.592;8.868;2023-07-16T01:42:35;96654.41;;;17.78;100.00
6829;BME280;17930;48.592;8.868;2023-07-16T01:45:02;96655.66;;;17.81;100.00
6829;BME280;17930;48.592;8.868;2023-07-16T01:47:35;96651.53;;;17.71;100.00
6829;BME280;17930;48.592;8.868;2023-07-16T01:50:07;96656.59;;;17.76;100.00
6829;BME280;17930;48.592;8.868;2023-07-16T01:52:34;96655.25;;;17.70;100.00
6829;BME280;17930;48.592;8.868;2023-07-16T01:55:00;96656.34;;;17.69;100.00
6829;BME280;17930;48.592;8.868;2023-07-16T01:57:27;96646.75;;;17.65;100.00
6829;BME280;17930;48.592;8.868;2023-07-16T01:59:54;96645.28;;;17.76;100.00
6829;BME280;17930;48.592;8.868;2023-07-16T02:02:21;96650.13;;;17.65;100.00
6829;BME280;17930;48.592;8.868;2023-07-16T02:04:49;96655.41;;;17.65;100.00
6829;BME280;17930;48.592;8.868;2023-07-16T02:07:16;96647.50;;;17.65;100.00
6829;BME280;17930;48.592;8.868;2023-07-16T02:09:42;96665.34;;;17.68;100.00
6829;BME280;17930;48.592;8.868;2023-07-16T02:12:09;96683.91;;;17.80;100.00
6829;BME280;17930;48.592;8.868;2023-07-16T02:14:36;96673.63;;;17.87;100.00
6829;BME280;17930;48.592;8.868;2023-07-16T02:17:03;96673.34;;;17.80;100.00
6829;BME280;17930;48.592;8.868;2023-07-16T02:19:30;96659.97;;;17.85;100.00
6829;BME280;17930;48.592;8.868;2023-07-16T02:21:58;96652.38;;;17.84;100.00
6829;BME280;17930;48.592;8.868;2023-07-16T02:24:25;96666.22;;;17.81;100.00
6829;BME280;17930;48.592;8.868;2023-07-16T02:26:52;96669.41;;;17.95;100.00
6829;BME280;17930;48.592;8.868;2023-07-16T02:29:19;96687.00;;;17.82;100.00
6829;BME280;17930;48.592;8.868;2023-07-16T02:31:45;96685.19;;;17.74;100.00
6829;BME280;17930;48.592;8.868;2023-07-16T02:34:13;96697.50;;;17.62;100.00
6829;BME280;17930;48.592;8.868;2023-07-16T02:36:41;96689.72;;;17.65;100.00
6829;BME280;17930;48.592;8.868;2023-07-16T02:39:09;96688.63;;;17.66;100.00
6829;BME280;17930;48.592;8.868;2023-07-16T02:41:35;96690.72;;;17.44;100.00
6829;BME280;17930;48.592;8.868;2023-07-16T02:44:05;96689.34;;;17.46;100.00
6829;BME280;17930;48.592;8.868;2023-07-16T02:46:32;96696.22;;;17.31;100.00
6829;BME280;17930;48.592;8.868;2023-07-16T02:48:59;96704.75;;;17.19;100.00
6829;BME280;17930;48.592;8.868;2023-07-16T02:51:26;96712.19;;;17.09;100.00
6829;BME280;17930;48.592;8.868;2023-07-16T02:53:53;96715.13;;;17.16;100.00
6829;BME280;17930;48.592;8.868;2023-07-16T02:56:21;96710.78;;;17.20;100.00
6829;BME280;17930;48.592;8.868;2023-07-16T02:58:48;96697.94;;;17.27;100.00
6829;BME280;17930;48.592;8.868;2023-07-16T03:01:14;96703.34;;;17.22;100.00
6829;BME280;17930;48.592;8.868;2023-07-16T03:03:41;96711.09;;;17.18;100.00
6829;BME280;17930;48.592;8.868;2023-07-16T03:06:08;96718.69;;;17.20;100.00
6829;BME280;17930;48.592;8.868;2023-07-16T03:08:35;96704.75;;;17.28;100.00
6829;BME280;17930;48.592;8.868;2023-07-16T03:11:02;96707.72;;;17.26;100.00
6829;BME280;17930;48.592;8.868;2023-07-16T03:13:30;96693.75;;;17.26;100.00
6829;BME280;17930;48.592;8.868;2023-07-16T03:15:57;96704.59;;;17.33;100.00
6829;BME280;17930;48.592;8.868;2023-07-16T03:18:27;96723.03;;;17.33;100.00
6829;BME280;17930;48.592;8.868;2023-07-16T03:20:55;96718.84;;;17.32;100.00
6829;BME280;17930;48.592;8.868;2023-07-16T03:23:22;96725.03;;;17.36;100.00
6829;BME280;17930;48.592;8.868;2023-07-16T03:25:49;96728.44;;;17.45;100.00
6829;BME280;17930;48.592;8.868;2023-07-16T03:28:16;96729.22;;;17.45;100.00
6829;BME280;17930;48.592;8.868;2023-07-16T03:30:46;96742.22;;;17.50;100.00
6829;BME280;17930;48.592;8.868;2023-07-16T03:33:13;96758.38;;;17.40;100.00
6829;BME280;17930;48.592;8.868;2023-07-16T03:35:42;96751.41;;;17.36;100.00
6829;BME280;17930;48.592;8.868;2023-07-16T03:38:09;96766.00;;;17.42;100.00
6829;BME280;17930;48.592;8.868;2023-07-16T03:40:35;96766.16;;;17.45;100.00
6829;BME280;17930;48.592;8.868;2023-07-16T03:43:02;96775.94;;;17.45;100.00
6829;BME280;17930;48.592;8.868;2023-07-16T03:45:29;96786.63;;;17.40;100.00
6829;BME280;17930;48.592;8.868;2023-07-16T03:47:58;96790.19;;;17.44;100.00
6829;BME280;17930;48.592;8.868;2023-07-16T03:50:25;96790.19;;;17.44;100.00
6829;BME280;17930;48.592;8.868;2023-07-16T03:52:51;96788.00;;;17.45;100.00
6829;BME280;17930;48.592;8.868;2023-07-16T03:55:18;96775.31;;;17.47;100.00
6829;BME280;17930;48.592;8.868;2023-07-16T03:57:45;96765.19;;;17.49;100.00
6829;BME280;17930;48.592;8.868;2023-07-16T04:00:12;96762.25;;;17.51;100.00
6829;BME280;17930;48.592;8.868;2023-07-16T04:02:39;96759.28;;;17.52;100.00
6829;BME280;17930;48.592;8.868;2023-07-16T04:05:08;96748.09;;;17.55;100.00
6829;BME280;17930;48.592;8.868;2023-07-16T04:07:35;96738.34;;;17.56;100.00
6829;BME280;17930;48.592;8.868;2023-07-16T04:10:02;96745.75;;;17.62;100.00
6829;BME280;17930;48.592;8.868;2023-07-16T04:12:29;96753.50;;;17.67;100.00
6829;BME280;17930;48.592;8.868;2023-07-16T04:14:56;96765.94;;;17.58;100.00
6829;BME280;17930;48.592;8.868;2023-07-16T04:17:24;96781.50;;;17.51;100.00
6829;BME280;17930;48.592;8.868;2023-07-16T04:19:51;96808.47;;;17.48;100.00
6829;BME280;17930;48.592;8.868;2023-07-16T04:22:19;96809.41;;;17.52;100.00
6829;BME280;17930;48.592;8.868;2023-07-16T04:24:46;96804.13;;;17.52;100.00
6829;BME280;17930;48.592;8.868;2023-07-16T04:27:13;96816.88;;;17.50;100.00
6829;BME280;17930;48.592;8.868;2023-07-16T04:29:39;96837.50;;;17.48;100.00
6829;BME280;17930;48.592;8.868;2023-07-16T04:32:06;96835.34;;;17.50;100.00
6829;BME280;17930;48.592;8.868;2023-07-16T04:34:33;96835.78;;;17.52;100.00
6829;BME280;17930;48.592;8.868;2023-07-16T04:37:00;96848.84;;;17.49;100.00
6829;BME280;17930;48.592;8.868;2023-07-16T04:39:28;96852.41;;;17.45;100.00
6829;BME280;17930;48.592;8.868;2023-07-16T04:41:55;96835.81;;;17.36;100.00
6829;BME280;17930;48.592;8.868;2023-07-16T04:44:22;96839.38;;;17.31;100.00
6829;BME280;17930;48.592;8.868;2023-07-16T04:46:49;96845.16;;;17.25;100.00
6829;BME280;17930;48.592;8.868;2023-07-16T04:49:15;96841.06;;;17.19;100.00
6829;BME280;17930;48.592;8.868;2023-07-16T04:51:42;96845.25;;;17.11;100.00
6829;BME280;17930;48.592;8.868;2023-07-16T04:54:09;96848.81;;;17.07;100.00
6829;BME280;17930;48.592;8.868;2023-07-16T04:56:37;96861.25;;;17.06;100.00
6829;BME280;17930;48.592;8.868;2023-07-16T04:59:04;96845.72;;;17.05;100.00
6829;BME280;17930;48.592;8.868;2023-07-16T05:01:31;96835.34;;;17.17;100.00
6829;BME280;17930;48.592;8.868;2023-07-16T05:03:58;96838.09;;;17.12;100.00
6829;BME280;17930;48.592;8.868;2023-07-16T05:06:24;96860.44;;;17.14;100.00
6829;BME280;17930;48.592;8.868;2023-07-16T05:08:51;96864.00;;;17.10;100.00
6829;BME280;17930;48.592;8.868;2023-07-16T05:11:19;96853.16;;;17.11;100.00
6829;BME280;17930;48.592;8.868;2023-07-16T05:13:47;96853.16;;;17.20;100.00
6829;BME280;17930;48.592;8.868;2023-07-16T05:16:13;96844.81;;;17.18;100.00
6829;BME280;17930;48.592;8.868;2023-07-16T05:18:40;96847.47;;;17.26;100.00
6829;BME280;17930;48.592;8.868;2023-07-16T05:21:07;96848.84;;;17.32;100.00
6829;BME280;17930;48.592;8.868;2023-07-16T05:23:34;96851.81;;;17.31;100.00
6829;BME280;17930;48.592;8.868;2023-07-16T05:26:01;96865.28;;;17.54;100.00
6829;BME280;17930;48.592;8.868;2023-07-16T05:28:27;96859.50;;;17.78;100.00
6829;BME280;17930;48.592;8.868;2023-07-16T05:30:59;96847.69;;;17.84;100.00
6829;BME280;17930;48.592;8.868;2023-07-16T05:33:26;96863.00;;;18.07;100.00
6829;BME280;17930;48.592;8.868;2023-07-16T05:35:53;96867.34;;;18.03;100.00
6829;BME280;17930;48.592;8.868;2023-07-16T05:38:21;96870.31;;;18.01;100.00
6829;BME280;17930;48.592;8.868;2023-07-16T05:40:48;96870.16;;;17.98;100.00
6829;BME280;17930;48.592;8.868;2023-07-16T05:43:14;96864.09;;;17.97;100.00
6829;BME280;17930;48.592;8.868;2023-07-16T05:45:41;96866.13;;;17.92;100.00
6829;BME280;17930;48.592;8.868;2023-07-16T05:48:09;96864.31;;;17.84;100.00
6829;BME280;17930;48.592;8.868;2023-07-16T05:50:37;96851.56;;;17.86;100.00
6829;BME280;17930;48.592;8.868;2023-07-16T05:53:03;96853.13;;;17.87;100.00
6829;BME280;17930;48.592;8.868;2023-07-16T05:55:30;96846.00;;;17.79;100.00
6829;BME280;17930;48.592;8.868;2023-07-16T05:57:57;96841.75;;;17.87;100.00
6829;BME280;17930;48.592;8.868;2023-07-16T06:00:23;96863.22;;;17.77;100.00
6829;BME280;17930;48.592;8.868;2023-07-16T06:02:50;96882.97;;;17.54;100.00
6829;BME280;17930;48.592;8.868;2023-07-16T06:05:18;96891.38;;;17.39;100.00
6829;BME280;17930;48.592;8.868;2023-07-16T06:07:45;96875.06;;;17.37;100.00
6829;BME280;17930;48.592;8.868;2023-07-16T06:10:12;96865.63;;;17.45;100.00
6829;BME280;17930;48.592;8.868;2023-07-16T06:12:39;96865.63;;;17.45;100.00
6829;BME280;17930;48.592;8.868;2023-07-16T06:15:06;96869.47;;;17.55;100.00
6829;BME280;17930;48.592;8.868;2023-07-16T06:17:34;96878.31;;;17.59;100.00
6829;BME280;17930;48.592;8.868;2023-07-16T06:20:01;96875.53;;;17.64;100.00
6829;BME280;17930;48.592;8.868;2023-07-16T06:22:30;96878.47;;;17.71;100.00
6829;BME280;17930;48.592;8.868;2023-07-16T06:24:57;96883.88;;;17.83;100.00
6829;BME280;17930;48.592;8.868;2023-07-16T06:27:25;96877.00;;;17.99;100.00
6829;BME280;17930;48.592;8.868;2023-07-16T06:29:51;96873.09;;;17.96;100.00
6829;BME280;17930;48.592;8.868;2023-07-16T06:32:18;96875.72;;;18.05;100.00
6829;BME280;17930;48.592;8.868;2023-07-16T06:34:45;96869.91;;;18.37;100.00
6829;BME280;17930;48.592;8.868;2023-07-16T06:37:12;96877.50;;;18.38;100.00
6829;BME280;17930;48.592;8.868;2023-07-16T06:39:40;96887.06;;;18.59;100.00
6829;BME280;17930;48.592;8.868;2023-07-16T06:42:07;96897.53;;;18.76;100.00
6829;BME280;17930;48.592;8.868;2023-07-16T06:44:34;96903.75;;;19.09;100.00
6829;BME280;17930;48.592;8.868;2023-07-16T06:47:01;96910.28;;;19.11;100.00
6829;BME280;17930;48.592;8.868;2023-07-16T06:49:29;96917.25;;;18.87;100.00
6829;BME280;17930;48.592;8.868;2023-07-16T06:51:56;96915.75;;;18.98;100.00
6829;BME280;17930;48.592;8.868;2023-07-16T06:54:23;96909.63;;;19.35;100.00
6829;BME280;17930;48.592;8.868;2023-07-16T06:56:51;96902.63;;;19.91;100.00
6829;BME280;17930;48.592;8.868;2023-07-16T06:59:18;96902.19;;;19.89;100.00
6829;BME280;17930;48.592;8.868;2023-07-16T07:01:44;96907.41;;;19.77;100.00
6829;BME280;17930;48.592;8.868;2023-07-16T07:04:11;96897.13;;;19.44;100.00
6829;BME280;17930;48.592;8.868;2023-07-16T07:06:38;96904.19;;;19.11;100.00
6829;BME280;17930;48.592;8.868;2023-07-16T07:09:05;96898.03;;;19.07;100.00
6829;BME280;17930;48.592;8.868;2023-07-16T07:11:32;96900.78;;;19.31;100.00
6829;BME280;17930;48.592;8.868;2023-07-16T07:14:00;96905.13;;;19.55;100.00
6829;BME280;17930;48.592;8.868;2023-07-16T07:16:27;96907.41;;;19.77;100.00
6829;BME280;17930;48.592;8.868;2023-07-16T07:18:53;96920.44;;;19.82;100.00
6829;BME280;17930;48.592;8.868;2023-07-16T07:21:20;96926.47;;;19.91;100.00
6829;BME280;17930;48.592;8.868;2023-07-16T07:23:47;96942.81;;;19.93;100.00
6829;BME280;17930;48.592;8.868;2023-07-16T07:26:14;96945.19;;;20.06;100.00
6829;BME280;17930;48.592;8.868;2023-07-16T07:28:40;96937.72;;;19.88;100.00
6829;BME280;17930;48.592;8.868;2023-07-16T07:31:09;96945.13;;;19.74;100.00
6829;BME280;17930;48.592;8.868;2023-07-16T07:33:35;96950.81;;;20.05;100.00
6829;BME280;17930;48.592;8.868;2023-07-16T07:36:02;96937.56;;;20.17;100.00
6829;BME280;17930;48.592;8.868;2023-07-16T07:38:29;96939.56;;;20.08;100.00
6829;BME280;17930;48.592;8.868;2023-07-16T07:40:56;96940.16;;;21.05;100.00
6829;BME280;17930;48.592;8.868;2023-07-16T07:43:23;96937.72;;;21.00;100.00
6829;BME280;17930;48.592;8.868;2023-07-16T07:45:50;96939.72;;;20.35;100.00
6829;BME280;17930;48.592;8.868;2023-07-16T07:48:18;96950.03;;;20.05;100.00
6829;BME280;17930;48.592;8.868;2023-07-16T07:50:46;96951.13;;;19.83;100.00
6829;BME280;17930;48.592;8.868;2023-07-16T07:53:13;96957.00;;;20.09;100.00
6829;BME280;17930;48.592;8.868;2023-07-16T07:55:43;96950.31;;;20.91;100.00
6829;BME280;17930;48.592;8.868;2023-07-16T07:58:10;96943.47;;;21.77;100.00
6829;BME280;17930;48.592;8.868;2023-07-16T08:00:37;96946.44;;;22.30;100.00
6829;BME280;17930;48.592;8.868;2023-07-16T08:03:04;96945.22;;;22.55;100.00
6829;BME280;17930;48.592;8.868;2023-07-16T08:05:32;96937.13;;;22.82;100.00
6829;BME280;17930;48.592;8.868;2023-07-16T08:07:59;96939.59;;;23.21;100.00
6829;BME280;17930;48.592;8.868;2023-07-16T08:10:26;96942.22;;;22.71;100.00
6829;BME280;17930;48.592;8.868;2023-07-16T08:12:53;96939.63;;;22.90;100.00
6829;BME280;17930;48.592;8.868;2023-07-16T08:15:19;96926.56;;;22.39;100.00
6829;BME280;17930;48.592;8.868;2023-07-16T08:17:46;96921.59;;;22.38;100.00
6829;BME280;17930;48.592;8.868;2023-07-16T08:20:13;96913.63;;;22.53;100.00
6829;BME280;17930;48.592;8.868;2023-07-16T08:22:41;96902.28;;;22.25;100.00
6829;BME280;17930;48.592;8.868;2023-07-16T08:25:08;96917.94;;;22.15;100.00
6829;BME280;17930;48.592;8.868;2023-07-16T08:27:35;96927.44;;;22.59;100.00
6829;BME280;17930;48.592;8.868;2023-07-16T08:30:02;96920.66;;;22.46;100.00
6829;BME280;17930;48.592;8.868;2023-07-16T08:32:29;96928.44;;;22.39;100.00
6829;BME280;17930;48.592;8.868;2023-07-16T08:34:55;96929.22;;;22.24;100.00
6829;BME280;17930;48.592;8.868;2023-07-16T08:37:22;96932.78;;;21.89;100.00
6829;BME280;17930;48.592;8.868;2023-07-16T08:39:52;96931.44;;;21.44;100.00
6829;BME280;17930;48.592;8.868;2023-07-16T08:42:19;96933.31;;;21.94;100.00
6829;BME280;17930;48.592;8.868;2023-07-16T08:44:48;96928.56;;;23.38;100.00
6829;BME280;17930;48.592;8.868;2023-07-16T08:47:15;96934.16;;;23.33;100.00
6829;BME280;17930;48.592;8.868;2023-07-16T08:49:54;96942.53;;;23.16;100.00
6829;BME280;17930;48.592;8.868;2023-07-16T08:52:22;96947.78;;;23.47;100.00
6829;BME280;17930;48.592;8.868;2023-07-16T08:54:48;96939.97;;;23.91;100.00
6829;BME280;17930;48.592;8.868;2023-07-16T08:57:17;96941.78;;;24.44;100.00
6829;BME280;17930;48.592;8.868;2023-07-16T08:59:47;96940.88;;;24.18;100.00
6829;BME280;17930;48.592;8.868;2023-07-16T09:02:15;96944.31;;;24.37;100.00
6829;BME280;17930;48.592;8.868;2023-07-16T09:04:43;96931.44;;;24.87;100.00
6829;BME280;17930;48.592;8.868;2023-07-16T09:07:10;96936.06;;;24.68;100.00
6829;BME280;17930;48.592;8.868;2023-07-16T09:09:37;96928.28;;;25.84;100.00
6829;BME280;17930;48.592;8.868;2023-07-16T09:12:04;96937.28;;;25.18;100.00
6829;BME280;17930;48.592;8.868;2023-07-16T09:14:32;96927.72;;;26.01;100.00
6829;BME280;17930;48.592;8.868;2023-07-16T09:16:59;96927.47;;;26.49;100.00
6829;BME280;17930;48.592;8.868;2023-07-16T09:19:26;96921.78;;;26.94;100.00
6829;BME280;17930;48.592;8.868;2023-07-16T09:21:52;96914.75;;;26.79;100.00
6829;BME280;17930;48.592;8.868;2023-07-16T09:24:20;96924.03;;;25.80;100.00
6829;BME280;17930;48.592;8.868;2023-07-16T09:26:50;96927.09;;;25.82;100.00
6829;BME280;17930;48.592;8.868;2023-07-16T09:29:17;96927.38;;;26.82;100.00
6829;BME280;17930;48.592;8.868;2023-07-16T09:31:56;96922.00;;;27.29;100.00
6829;BME280;17930;48.592;8.868;2023-07-16T09:34:26;96923.97;;;26.42;100.00
6829;BME280;17930;48.592;8.868;2023-07-16T09:36:53;96922.44;;;26.08;100.00
6829;BME280;17930;48.592;8.868;2023-07-16T09:39:20;96920.16;;;26.10;100.00
6829;BME280;17930;48.592;8.868;2023-07-16T09:41:49;96932.47;;;25.27;100.00
6829;BME280;17930;48.592;8.868;2023-07-16T09:44:18;96924.50;;;25.30;100.00
6829;BME280;17930;48.592;8.868;2023-07-16T09:46:46;96928.06;;;24.26;100.00
6829;BME280;17930;48.592;8.868;2023-07-16T09:49:15;96939.03;;;24.40;100.00
6829;BME280;17930;48.592;8.868;2023-07-16T09:51:43;96924.97;;;25.94;100.00
6829;BME280;17930;48.592;8.868;2023-07-16T09:54:12;96931.19;;;26.34;100.00
6829;BME280;17930;48.592;8.868;2023-07-16T09:56:43;96928.03;;;27.69;100.00
6829;BME280;17930;48.592;8.868;2023-07-16T09:59:13;96918.91;;;27.20;100.00
6829;BME280;17930;48.592;8.868;2023-07-16T10:01:41;96919.09;;;26.51;100.00
6829;BME280;17930;48.592;8.868;2023-07-16T10:04:12;96928.38;;;26.64;100.00
6829;BME280;17930;48.592;8.868;2023-07-16T10:06:54;96926.03;;;25.86;100.00
6829;BME280;17930;48.592;8.868;2023-07-16T10:09:35;96936.03;;;26.62;100.00
6829;BME280;17930;48.592;8.868;2023-07-16T10:12:14;96931.50;;;27.12;100.00
6829;BME280;17930;48.592;8.868;2023-07-16T10:14:43;96927.50;;;26.92;100.00
6829;BME280;17930;48.592;8.868;2023-07-16T10:17:14;96932.34;;;25.46;100.00
6829;BME280;17930;48.592;8.868;2023-07-16T10:19:51;96918.59;;;26.85;100.00
6829;BME280;17930;48.592;8.868;2023-07-16T10:22:31;96919.00;;;27.34;100.00
6829;BME280;17930;48.592;8.868;2023-07-16T10:24:58;96920.44;;;27.24;99.95
6829;BME280;17930;48.592;8.868;2023-07-16T10:27:29;96917.34;;;27.15;96.41
6829;BME280;17930;48.592;8.868;2023-07-16T10:29:56;96917.44;;;26.03;100.00
6829;BME280;17930;48.592;8.868;2023-07-16T10:32:26;96920.75;;;25.09;100.00
6829;BME280;17930;48.592;8.868;2023-07-16T10:34:54;96906.38;;;26.84;100.00
6829;BME280;17930;48.592;8.868;2023-07-16T10:37:22;96898.75;;;26.89;100.00
6829;BME280;17930;48.592;8.868;2023-07-16T10:39:50;96905.22;;;27.35;100.00
6829;BME280;17930;48.592;8.868;2023-07-16T10:42:19;96900.22;;;29.53;87.19
6829;BME280;17930;48.592;8.868;2023-07-16T10:44:48;96901.44;;;29.04;82.01
6829;BME280;17930;48.592;8.868;2023-07-16T10:47:19;96910.28;;;28.87;86.53
6829;BME280;17930;48.592;8.868;2023-07-16T10:49:47;96895.66;;;30.29;81.14
6829;BME280;17930;48.592;8.868;2023-07-16T10:52:13;96880.59;;;30.38;75.03
6829;BME280;17930;48.592;8.868;2023-07-16T10:54:41;96881.88;;;30.13;73.34
6829;BME280;17930;48.592;8.868;2023-07-16T10:57:10;96900.56;;;29.69;78.93
6829;BME280;17930;48.592;8.868;2023-07-16T10:59:37;96906.31;;;28.08;80.20
6829;BME280;17930;48.592;8.868;2023-07-16T11:02:05;96906.78;;;26.43;99.19
6829;BME280;17930;48.592;8.868;2023-07-16T11:04:35;96908.75;;;27.53;95.92
6829;BME280;17930;48.592;8.868;2023-07-16T11:07:04;96889.94;;;30.23;84.25
6829;BME280;17930;48.592;8.868;2023-07-16T11:09:32;96885.25;;;30.31;80.75
6829;BME280;17930;48.592;8.868;2023-07-16T11:12:06;96892.16;;;29.50;79.02
6829;BME280;17930;48.592;8.868;2023-07-16T11:14:33;96891.00;;;29.58;77.58
6829;BME280;17930;48.592;8.868;2023-07-16T11:17:04;96898.00;;;29.10;78.46
6829;BME280;17930;48.592;8.868;2023-07-16T11:19:32;96896.97;;;27.71;85.14
6829;BME280;17930;48.592;8.868;2023-07-16T11:22:00;96896.44;;;28.47;83.39
6829;BME280;17930;48.592;8.868;2023-07-16T11:24:27;96906.94;;;27.67;84.58
6829;BME280;17930;48.592;8.868;2023-07-16T11:26:55;96900.94;;;27.27;89.75
6829;BME280;17930;48.592;8.868;2023-07-16T11:29:24;96900.78;;;26.60;94.17
6829;BME280;17930;48.592;8.868;2023-07-16T11:31:51;96900.97;;;26.77;98.73
6829;BME280;17930;48.592;8.868;2023-07-16T11:34:20;96900.81;;;27.06;95.35
6829;BME280;17930;48.592;8.868;2023-07-16T11:36:48;96895.06;;;27.04;92.71
6829;BME280;17930;48.592;8.868;2023-07-16T11:39:16;96893.22;;;27.86;88.20
6829;BME280;17930;48.592;8.868;2023-07-16T11:41:53;96896.81;;;28.52;82.77
6829;BME280;17930;48.592;8.868;2023-07-16T11:44:20;96877.38;;;30.00;79.55
6829;BME280;17930;48.592;8.868;2023-07-16T11:46:48;96869.47;;;30.83;73.96
6829;BME280;17930;48.592;8.868;2023-07-16T11:49:14;96870.69;;;30.25;73.10
6829;BME280;17930;48.592;8.868;2023-07-16T11:51:41;96872.63;;;29.08;76.11
6829;BME280;17930;48.592;8.868;2023-07-16T11:54:10;96851.50;;;29.20;77.74
6829;BME280;17930;48.592;8.868;2023-07-16T11:56:36;96841.06;;;30.75;72.92
6829;BME280;17930;48.592;8.868;2023-07-16T11:59:03;96845.69;;;29.39;74.26
6829;BME280;17930;48.592;8.868;2023-07-16T12:01:30;96838.25;;;30.42;73.82
6829;BME280;17930;48.592;8.868;2023-07-16T12:03:58;96849.72;;;32.26;66.67
6829;BME280;17930;48.592;8.868;2023-07-16T12:06:24;96844.97;;;33.05;64.45
6829;BME280;17930;48.592;8.868;2023-07-16T12:08:54;96834.94;;;34.02;61.92
6829;BME280;17930;48.592;8.868;2023-07-16T12:11:21;96834.19;;;33.44;61.60
6829;BME280;17930;48.592;8.868;2023-07-16T12:13:48;96834.88;;;32.37;61.84
6829;BME280;17930;48.592;8.868;2023-07-16T12:16:15;96824.78;;;33.10;61.17
6829;BME280;17930;48.592;8.868;2023-07-16T12:18:41;96836.75;;;31.58;64.45
6829;BME280;17930;48.592;8.868;2023-07-16T12:21:10;96820.47;;;32.47;63.05
6829;BME280;17930;48.592;8.868;2023-07-16T12:23:36;96830.06;;;31.33;63.64
6829;BME280;17930;48.592;8.868;2023-07-16T12:26:03;96833.69;;;31.86;65.94
6829;BME280;17930;48.592;8.868;2023-07-16T12:28:30;96834.69;;;31.69;64.07
6829;BME280;17930;48.592;8.868;2023-07-16T12:30:56;96832.97;;;32.38;63.26
6829;BME280;17930;48.592;8.868;2023-07-16T12:33:23;96829.19;;;31.76;62.98
6829;BME280;17930;48.592;8.868;2023-07-16T12:35:50;96826.09;;;31.77;63.74
6829;BME280;17930;48.592;8.868;2023-07-16T12:38:18;96818.41;;;32.77;61.23
6829;BME280;17930;48.592;8.868;2023-07-16T12:40:45;96822.19;;;33.64;59.09
6829;BME280;17930;48.592;8.868;2023-07-16T12:43:12;96818.84;;;33.37;59.50
6829;BME280;17930;48.592;8.868;2023-07-16T12:45:39;96828.94;;;31.97;59.81
6829;BME280;17930;48.592;8.868;2023-07-16T12:48:05;96833.72;;;31.82;61.03
6829;BME280;17930;48.592;8.868;2023-07-16T12:50:32;96832.47;;;31.60;60.39
6829;BME280;17930;48.592;8.868;2023-07-16T12:52:59;96828.28;;;31.56;63.59
6829;BME280;17930;48.592;8.868;2023-07-16T12:55:27;96824.31;;;31.94;59.25
6829;BME280;17930;48.592;8.868;2023-07-16T12:57:54;96810.38;;;33.16;57.36
6829;BME280;17930;48.592;8.868;2023-07-16T13:00:20;96816.25;;;32.69;57.62
6829;BME280;17930;48.592;8.868;2023-07-16T13:02:47;96821.16;;;32.74;55.90
6829;BME280;17930;48.592;8.868;2023-07-16T13:05:14;96824.16;;;31.48;60.05